This is the latest recevied weather packets stored in our database for station/object KTPA. If no packets are shown the sender has not sent any weather packets the latest 10 day(s).
| Time | Temp. | Humidity | Pressure | Rain* | Wind** | Luminosity | Snow |
|---|---|---|---|---|---|---|---|
| 1777422817 | 27.78° C | 48% | 1016.9 hPa | - | - | - | - |
| 1777421622 | 27.78° C | 48% | 1016.9 hPa | - | - | - | - |
| 1777413826 | 28.89° C | 45% | 1016.9 hPa | - | - | - | - |
| 1777411424 | 27.78° C | 51% | 1017.3 hPa | - | - | - | - |
| 1777410222 | 27.78° C | 51% | 1017.3 hPa | - | - | - | - |
| 1777407947 | 27.78° C | 54% | 1018.3 hPa | - | - | - | - |
| 1777407225 | 27.78° C | 54% | 1018.3 hPa | - | - | - | - |
| 1777404226 | 28.89° C | 45% | 1019 hPa | - | - | - | - |
| 1777403624 | 28.89° C | 45% | 1019 hPa | - | - | - | - |
| 1777403025 | 28.89° C | 45% | 1019 hPa | - | - | - | - |
| 1777399420 | 27.78° C | 48% | 1019.3 hPa | - | - | - | - |
| 1777393420 | 27.78° C | 48% | 1020.3 hPa | - | - | - | - |
| 1777385622 | 22.78° C | 73% | 1020.3 hPa | - | - | - | - |
| 1777383221 | 20.56° C | 83% | 1020.3 hPa | - | - | - | - |
| 1777382621 | 20.56° C | 83% | 1020.3 hPa | - | - | - | - |
| 1777381421 | 20.56° C | 83% | 1020.3 hPa | - | - | - | - |
| 1777379622 | 20.56° C | 83% | 1020 hPa | - | - | - | - |
| 1777377824 | 20.56° C | 83% | 1019.6 hPa | - | - | - | - |
| 1777376621 | 20° C | 88% | 1019.3 hPa | - | - | - | - |
| 1777375420 | 20° C | 88% | 1019 hPa | - | - | - | - |
| 1777372418 | 20° C | 88% | 1018.6 hPa | - | - | - | - |
| 1777371821 | 20° C | 88% | 1018.6 hPa | - | - | - | - |
| 1777371218 | 20° C | 88% | 1018.6 hPa | - | - | - | - |
| 1777370619 | 20° C | 88% | 1018.6 hPa | - | - | - | - |
| 1777368819 | 20° C | 88% | 1018.6 hPa | - | - | - | - |
* Rain since midnight (hover to see other rain measurements)
** Current wind speed in m/s (hover to see current wind gust speed)